Time;durP1;ratioP1;P1;durP2;ratioP2;P2;SDS_P1;SDS_P2;PMS_P1;PMS_P2;Temp;Humidity;BMP_temperature;BMP_pressure;BME280_temperature;BME280_humidity;BME280_pressure;Samples;Min_cycle;Max_cycle;Signal;HPM_P1;HPM_P2
2022/12/07 00:01:12;;;;;;;8.65;4.20;;;20.50;59.60;;;;;;5060285;27;92311;-86
2022/12/07 00:03:39;;;;;;;7.68;4.40;;;20.50;59.50;;;;;;5058920;27;94230;-87
2022/12/07 00:06:07;;;;;;;6.90;4.40;;;20.50;59.50;;;;;;5060550;27;93278;-86
2022/12/07 00:08:34;;;;;;;9.48;4.63;;;20.50;59.60;;;;;;5058539;27;92420;-87
2022/12/07 00:11:05;;;;;;;6.28;3.65;;;20.40;59.40;;;;;;5059896;27;91567;-87
2022/12/07 00:13:32;;;;;;;7.63;3.88;;;20.40;59.60;;;;;;5059542;27;93544;-86
2022/12/07 00:16:03;;;;;;;8.48;4.15;;;20.40;59.60;;;;;;5057909;27;97523;-87
2022/12/07 00:18:29;;;;;;;6.63;4.10;;;20.40;59.60;;;;;;5041390;27;93627;-88
2022/12/07 00:21:00;;;;;;;7.53;4.20;;;20.40;59.70;;;;;;5060519;27;92571;-85
2022/12/07 00:23:25;;;;;;;7.22;4.25;;;20.40;59.90;;;;;;5058609;27;93098;-86
2022/12/07 00:25:51;;;;;;;7.75;4.35;;;20.40;59.90;;;;;;5039269;27;95950;-86
2022/12/07 00:28:17;;;;;;;8.95;3.80;;;20.30;59.70;;;;;;5060860;27;92618;-86
2022/12/07 00:30:42;;;;;;;7.13;3.70;;;20.30;59.90;;;;;;5058347;27;92662;-85
2022/12/07 00:33:08;;;;;;;5.65;4.00;;;20.30;59.90;;;;;;5041309;27;96504;-87
2022/12/07 00:35:33;;;;;;;6.53;3.75;;;20.30;59.70;;;;;;5059706;27;92273;-86
2022/12/07 00:37:59;;;;;;;6.00;3.80;;;20.30;59.70;;;;;;5058791;27;92625;-86
2022/12/07 00:40:24;;;;;;;7.00;4.40;;;20.20;59.70;;;;;;5060646;27;92646;-87
2022/12/07 00:42:50;;;;;;;6.13;4.00;;;20.30;59.80;;;;;;5058962;27;94378;-85
2022/12/07 00:45:16;;;;;;;6.47;3.75;;;20.30;59.80;;;;;;5057411;27;94037;-86
2022/12/07 00:47:41;;;;;;;5.72;3.70;;;20.20;59.80;;;;;;5059091;27;92847;-85
2022/12/07 00:50:07;;;;;;;7.10;4.13;;;20.20;59.90;;;;;;5059215;27;92400;-87
2022/12/07 00:52:32;;;;;;;6.07;4.03;;;20.20;60.00;;;;;;5058772;27;93565;-83
2022/12/07 00:54:58;;;;;;;5.07;3.67;;;20.20;60.10;;;;;;5060637;27;93914;-87
2022/12/07 00:57:24;;;;;;;6.65;3.92;;;20.20;59.90;;;;;;5059475;27;92636;-86
2022/12/07 00:59:49;;;;;;;8.73;3.95;;;20.10;59.90;;;;;;5059244;27;92087;-85
2022/12/07 01:02:15;;;;;;;6.57;3.75;;;20.10;59.90;;;;;;5058960;27;93240;-85
2022/12/07 01:04:40;;;;;;;6.65;3.72;;;20.10;59.90;;;;;;5048774;27;92800;-85
2022/12/07 01:07:06;;;;;;;7.55;4.07;;;20.10;59.90;;;;;;5057981;27;93031;-86
2022/12/07 01:09:32;;;;;;;9.13;4.10;;;20.10;59.80;;;;;;5056999;27;92551;-86
2022/12/07 01:11:57;;;;;;;5.60;3.70;;;20.10;59.90;;;;;;5059375;27;93808;-86
2022/12/07 01:14:23;;;;;;;5.65;3.40;;;20.10;59.90;;;;;;5057776;27;93775;-85
2022/12/07 01:16:49;;;;;;;6.18;3.75;;;20.00;60.00;;;;;;5057989;27;92775;-86
2022/12/07 01:19:14;;;;;;;5.78;3.92;;;20.00;59.80;;;;;;5058825;27;92769;-85
2022/12/07 01:21:40;;;;;;;6.18;3.67;;;20.10;59.90;;;;;;5056112;27;92921;-86
2022/12/07 01:24:10;;;;;;;5.55;3.55;;;20.00;59.90;;;;;;5060429;27;92640;-86
2022/12/07 01:26:35;;;;;;;9.07;4.65;;;20.00;60.00;;;;;;5059322;27;92561;-86
2022/12/07 01:29:01;;;;;;;7.43;4.20;;;20.00;59.80;;;;;;5059261;27;92065;-86
2022/12/07 01:31:28;;;;;;;6.35;3.72;;;20.00;59.90;;;;;;5058014;27;94208;-87
2022/12/07 01:33:57;;;;;;;6.00;3.50;;;20.00;59.80;;;;;;5057691;27;94325;-86
2022/12/07 01:36:25;;;;;;;5.47;3.87;;;20.00;59.90;;;;;;5058111;27;98869;-87
2022/12/07 01:38:58;;;;;;;6.07;3.80;;;20.00;60.00;;;;;;5038654;27;92774;-85
2022/12/07 01:41:26;;;;;;;6.53;3.72;;;19.90;59.80;;;;;;5058311;27;93742;-86
2022/12/07 01:44:35;;;;;;;5.37;3.33;;;19.90;59.90;;;;;;5058184;27;93069;-87
2022/12/07 01:47:03;;;;;;;5.82;3.42;;;19.90;59.80;;;;;;4956677;28;92747;-85
2022/12/07 01:49:45;;;;;;;6.10;3.55;;;19.90;59.80;;;;;;4959066;28;91490;-86
2022/12/07 01:52:29;;;;;;;5.13;3.30;;;19.90;59.80;;;;;;4959009;28;98025;-86
2022/12/07 01:55:00;;;;;;;5.53;3.28;;;19.90;60.00;;;;;;4958808;28;93310;-85
2022/12/07 01:57:26;;;;;;;5.75;3.33;;;19.80;60.00;;;;;;4958484;28;93669;-86
2022/12/07 01:59:53;;;;;;;6.57;3.53;;;19.80;60.10;;;;;;4957429;28;92703;-85
2022/12/07 02:02:26;;;;;;;6.40;3.67;;;19.80;60.00;;;;;;4959368;28;93783;-86
2022/12/07 02:04:53;;;;;;;5.40;3.08;;;19.80;60.20;;;;;;4958916;28;93870;-86
2022/12/07 02:07:20;;;;;;;5.03;3.35;;;19.80;60.10;;;;;;4959383;28;92208;-87
2022/12/07 02:09:46;;;;;;;6.55;3.70;;;19.80;60.10;;;;;;4958043;28;92584;-86
2022/12/07 02:12:12;;;;;;;6.80;3.78;;;19.70;60.60;;;;;;4958043;28;93576;-86
2022/12/07 02:14:37;;;;;;;5.80;3.85;;;19.70;60.10;;;;;;4959207;28;93704;-86
2022/12/07 02:17:14;;;;;;;4.68;3.40;;;19.80;60.10;;;;;;4959481;28;92508;-87
2022/12/07 02:20:11;;;;;;;4.60;3.20;;;19.80;60.10;;;;;;4959256;28;92466;-85
2022/12/07 02:22:48;;;;;;;6.78;3.83;;;19.70;60.10;;;;;;4957471;28;94604;-86
2022/12/07 02:25:44;;;;;;;4.15;3.42;;;19.70;60.20;;;;;;5040305;27;93953;-86
2022/12/07 02:28:26;;;;;;;6.78;3.67;;;19.70;60.20;;;;;;5040917;27;91952;-85
2022/12/07 02:30:55;;;;;;;7.43;3.80;;;19.70;60.30;;;;;;5041092;27;92014;-86
2022/12/07 02:33:48;;;;;;;4.70;3.08;;;19.60;60.10;;;;;;5040106;27;93384;-85
2022/12/07 02:36:23;;;;;;;6.72;3.42;;;19.60;60.20;;;;;;4967139;28;92529;-87
2022/12/07 02:39:03;;;;;;;5.30;3.05;;;19.60;60.20;;;;;;4967693;28;93057;-85
2022/12/07 02:41:37;;;;;;;5.38;3.63;;;19.60;60.10;;;;;;4968438;28;92008;-85
2022/12/07 02:44:13;;;;;;;4.60;3.35;;;19.60;60.20;;;;;;4967744;28;93568;-84
2022/12/07 02:46:46;;;;;;;6.80;3.65;;;19.60;60.10;;;;;;4967760;28;93147;-85
2022/12/07 02:49:12;;;;;;;7.65;3.58;;;19.60;60.00;;;;;;4967594;28;93070;-86
2022/12/07 02:51:43;;;;;;;5.20;3.20;;;19.60;60.00;;;;;;4967260;28;92300;-85
2022/12/07 02:54:14;;;;;;;4.85;2.90;;;19.60;60.10;;;;;;4966351;28;96418;-85
2022/12/07 02:56:57;;;;;;;6.50;3.05;;;19.60;60.20;;;;;;4966532;28;93373;-87
2022/12/07 02:59:42;;;;;;;5.00;3.30;;;19.60;60.10;;;;;;4967168;28;92530;-85
2022/12/07 03:02:13;;;;;;;5.07;3.33;;;19.60;60.20;;;;;;4967481;28;93274;-86
2022/12/07 03:04:57;;;;;;;5.65;3.45;;;19.50;60.10;;;;;;4955290;28;95809;-85
2022/12/07 03:07:56;;;;;;;5.53;3.13;;;19.50;60.10;;;;;;4960790;28;93288;-86
2022/12/07 03:10:37;;;;;;;6.25;3.30;;;19.50;60.00;;;;;;4967759;28;92618;-86
2022/12/07 03:13:19;;;;;;;5.80;3.60;;;19.50;60.30;;;;;;4997176;27;92328;-85
2022/12/07 03:16:07;;;;;;;5.97;3.47;;;19.50;60.30;;;;;;5039591;27;94283;-85
2022/12/07 03:18:38;;;;;;;4.68;3.15;;;19.50;60.20;;;;;;5039945;27;94988;-87
2022/12/07 03:21:13;;;;;;;4.80;3.50;;;19.50;60.30;;;;;;5060400;27;92023;-86
2022/12/07 03:23:43;;;;;;;5.13;3.40;;;19.40;60.10;;;;;;5060011;27;92157;-86
2022/12/07 03:26:13;;;;;;;4.55;3.53;;;19.40;60.10;;;;;;5060790;27;93619;-85
2022/12/07 03:28:43;;;;;;;4.28;3.05;;;19.40;60.20;;;;;;5040000;27;96212;-86
2022/12/07 03:31:23;;;;;;;4.25;2.70;;;19.40;60.00;;;;;;5061158;27;92412;-86
2022/12/07 03:33:56;;;;;;;5.97;3.33;;;19.40;60.10;;;;;;5060345;27;91628;-86
2022/12/07 03:36:35;;;;;;;4.03;3.17;;;19.40;60.00;;;;;;5058482;27;93727;-84
2022/12/07 03:39:06;;;;;;;;;;;19.40;60.00;;;;;;5060213;27;93724;-86
2022/12/07 03:41:36;;;;;;;4.78;3.28;;;19.40;60.10;;;;;;5061490;27;93280;-87
2022/12/07 03:44:01;;;;;;;4.85;2.78;;;19.40;60.10;;;;;;5059423;27;92845;-84
2022/12/07 03:46:52;;;;;;;4.32;3.10;;;19.40;60.20;;;;;;5059362;27;93784;-86
2022/12/07 03:49:45;;;;;;;5.00;3.25;;;19.30;60.00;;;;;;5059582;27;97570;-86
2022/12/07 03:52:24;;;;;;;4.25;3.20;;;19.30;60.10;;;;;;4978208;28;92377;-85
2022/12/07 03:55:08;;;;;;;4.40;2.70;;;19.30;60.20;;;;;;4976929;28;92046;-86
2022/12/07 03:57:35;;;;;;;5.35;3.40;;;19.30;60.00;;;;;;4976475;28;93729;-86
2022/12/07 04:00:05;;;;;;;4.40;3.00;;;19.30;60.00;;;;;;4976679;28;93550;-85
2022/12/07 04:02:32;;;;;;;5.28;3.42;;;19.30;60.20;;;;;;4975819;28;92123;-86
2022/12/07 04:04:58;;;;;;;5.25;3.20;;;19.30;60.20;;;;;;4976862;28;92145;-85
2022/12/07 04:07:24;;;;;;;5.32;3.20;;;19.30;60.20;;;;;;4977178;28;94514;-87
2022/12/07 04:09:50;;;;;;;5.00;3.15;;;19.30;60.10;;;;;;4981826;28;93729;-85
2022/12/07 04:12:16;;;;;;;4.35;3.20;;;19.30;60.10;;;;;;4976406;28;92365;-86
2022/12/07 04:14:41;;;;;;;6.03;3.70;;;19.30;60.10;;;;;;4959906;28;92582;-86
2022/12/07 04:17:08;;;;;;;4.90;3.10;;;19.30;59.90;;;;;;4977328;28;93611;-86
2022/12/07 04:19:34;;;;;;;4.40;3.08;;;19.30;60.00;;;;;;4977029;28;94069;-85
2022/12/07 04:22:01;;;;;;;5.53;2.97;;;19.30;60.00;;;;;;4976150;28;92507;-85
2022/12/07 04:24:27;;;;;;;4.75;3.08;;;19.30;60.00;;;;;;4977501;28;92091;-85
2022/12/07 04:26:53;;;;;;;3.97;2.90;;;19.30;59.90;;;;;;4975592;28;93906;-86
2022/12/07 04:29:19;;;;;;;5.40;3.08;;;19.20;59.80;;;;;;5021883;27;93173;-87
2022/12/07 04:31:46;;;;;;;4.57;2.78;;;19.20;59.90;;;;;;5060043;27;93548;-86
2022/12/07 04:34:12;;;;;;;4.18;2.95;;;19.20;60.20;;;;;;5059060;27;92300;-86
2022/12/07 04:36:38;;;;;;;3.80;3.03;;;19.20;59.90;;;;;;5058663;27;93827;-86
2022/12/07 04:39:05;;;;;;;3.67;2.80;;;19.20;60.00;;;;;;5059460;27;92836;-87
2022/12/07 04:41:30;;;;;;;3.97;3.00;;;19.20;59.90;;;;;;5058948;27;92227;-84
2022/12/07 04:43:59;;;;;;;5.38;3.30;;;19.20;60.00;;;;;;5055741;27;92080;-86
2022/12/07 04:46:26;;;;;;;5.03;3.23;;;19.20;60.10;;;;;;5056599;27;94164;-86
2022/12/07 04:48:53;;;;;;;4.30;3.10;;;19.20;60.10;;;;;;5057695;27;93398;-86
2022/12/07 04:51:29;;;;;;;4.03;2.97;;;19.20;60.00;;;;;;5055066;27;92155;-84
2022/12/07 04:53:55;;;;;;;3.97;2.70;;;19.10;60.00;;;;;;5054301;27;92487;-85
2022/12/07 04:56:21;;;;;;;3.58;2.55;;;19.10;59.90;;;;;;5057090;27;94202;-85
2022/12/07 04:58:48;;;;;;;3.20;2.67;;;19.10;60.00;;;;;;5056971;27;94219;-85
2022/12/07 05:01:16;;;;;;;4.47;3.17;;;19.10;60.00;;;;;;5041383;27;92571;-85
2022/12/07 05:03:42;;;;;;;4.57;2.75;;;19.10;60.10;;;;;;5059287;27;92420;-86
2022/12/07 05:06:08;;;;;;;3.33;2.58;;;19.10;60.00;;;;;;5058357;27;93586;-86
2022/12/07 05:08:34;;;;;;;3.25;2.58;;;19.10;60.00;;;;;;5058400;27;93332;-86
2022/12/07 05:11:01;;;;;;;4.13;2.70;;;19.10;60.20;;;;;;5046269;27;92505;-85
2022/12/07 05:13:27;;;;;;;3.85;2.83;;;19.10;60.00;;;;;;5059772;27;91821;-85
2022/12/07 05:15:52;;;;;;;3.20;2.65;;;19.10;60.10;;;;;;5057208;27;93441;-84
2022/12/07 05:18:18;;;;;;;4.75;2.95;;;19.10;60.00;;;;;;5058038;27;93240;-86
2022/12/07 05:20:44;;;;;;;4.15;2.78;;;19.10;59.90;;;;;;5058328;27;93363;-84
2022/12/07 05:23:10;;;;;;;3.72;2.38;;;19.10;59.90;;;;;;5058190;27;92653;-85
2022/12/07 05:25:36;;;;;;;3.60;2.50;;;19.10;59.90;;;;;;5060184;27;93403;-86
2022/12/07 05:28:03;;;;;;;3.58;3.08;;;19.00;59.80;;;;;;5063445;27;93190;-86
2022/12/07 05:30:29;;;;;;;3.80;3.10;;;19.10;59.80;;;;;;5064034;27;93361;-86
2022/12/07 05:32:55;;;;;;;4.30;2.50;;;19.10;60.00;;;;;;5062761;27;92942;-86
2022/12/07 05:35:21;;;;;;;5.30;2.92;;;19.00;59.80;;;;;;5061652;27;93506;-86
2022/12/07 05:37:46;;;;;;;5.25;3.10;;;19.00;59.70;;;;;;5060520;27;93220;-86
2022/12/07 05:40:15;;;;;;;3.78;2.75;;;19.00;59.90;;;;;;5063139;27;91930;-86
2022/12/07 05:42:41;;;;;;;3.58;2.67;;;19.00;59.80;;;;;;5061084;27;92003;-85
2022/12/07 05:45:08;;;;;;;4.75;3.05;;;19.00;59.90;;;;;;5060533;27;94702;-85
2022/12/07 05:47:34;;;;;;;4.07;2.85;;;19.00;59.80;;;;;;5061441;27;94172;-85
2022/12/07 05:49:59;;;;;;;3.88;3.00;;;19.00;59.80;;;;;;5061016;27;92526;-85
2022/12/07 05:52:25;;;;;;;3.50;2.70;;;19.00;59.90;;;;;;5062275;27;92084;-86
2022/12/07 05:54:51;;;;;;;3.85;2.60;;;19.00;59.90;;;;;;5042607;27;95729;-86
2022/12/07 05:57:17;;;;;;;4.82;2.90;;;18.90;59.80;;;;;;5045222;27;92669;-87
2022/12/07 05:59:43;;;;;;;5.32;2.88;;;19.00;60.70;;;;;;5061214;27;92339;-85
2022/12/07 06:02:12;;;;;;;4.35;2.88;;;18.90;59.80;;;;;;5050063;27;91306;-87
2022/12/07 06:04:40;;;;;;;2.78;2.38;;;18.90;59.90;;;;;;5059048;27;93242;-86
2022/12/07 06:07:06;;;;;;;3.20;2.70;;;19.00;59.60;;;;;;5061602;27;93343;-86
2022/12/07 06:09:33;;;;;;;4.13;2.42;;;19.00;59.60;;;;;;5050754;27;93230;-86
2022/12/07 06:14:44;;;;;;;3.00;2.70;;;19.00;59.70;;;;;;5060680;27;92211;-86
2022/12/07 06:17:12;;;;;;;5.30;2.53;;;19.10;59.90;;;;;;5060022;27;93197;-85
2022/12/07 06:19:38;;;;;;;4.65;2.58;;;19.10;59.90;;;;;;5059621;27;92363;-86
2022/12/07 06:22:04;;;;;;;3.05;2.42;;;19.20;60.20;;;;;;5061716;27;92457;-85
2022/12/07 06:24:30;;;;;;;4.53;2.47;;;19.30;60.10;;;;;;5055924;27;93182;-83
2022/12/07 06:26:56;;;;;;;3.42;2.33;;;19.50;59.10;;;;;;5051409;27;93247;-82
2022/12/07 06:29:22;;;;;;;4.22;2.70;;;19.60;57.10;;;;;;5057588;27;92669;-83
2022/12/07 06:31:48;;;;;;;5.40;2.78;;;19.70;56.90;;;;;;5058787;27;92079;-84
2022/12/07 06:34:17;;;;;;;5.72;2.40;;;19.80;58.10;;;;;;5058791;27;94329;-83
2022/12/07 06:36:43;;;;;;;4.25;2.88;;;19.90;58.20;;;;;;5055840;27;93259;-84
2022/12/07 06:39:09;;;;;;;5.32;2.22;;;20.00;58.00;;;;;;5060850;27;93005;-83
2022/12/07 06:41:38;;;;;;;3.70;2.65;;;20.10;57.90;;;;;;5057861;27;92138;-84
2022/12/07 06:44:07;;;;;;;2.28;1.73;;;20.10;57.80;;;;;;5059842;27;94076;-85
2022/12/07 06:46:35;;;;;;;4.10;2.30;;;20.20;57.70;;;;;;5058290;27;93325;-82
2022/12/07 06:49:01;;;;;;;3.47;2.38;;;20.10;57.80;;;;;;5059660;27;92318;-84
2022/12/07 06:51:26;;;;;;;4.38;2.63;;;20.20;57.80;;;;;;5060053;27;91954;-82
2022/12/07 06:53:52;;;;;;;4.85;2.53;;;20.10;57.80;;;;;;5057988;27;93484;-84
2022/12/07 06:56:20;;;;;;;3.67;2.25;;;20.10;57.80;;;;;;5037462;27;94493;-84
2022/12/07 06:58:46;;;;;;;4.15;2.40;;;20.10;57.80;;;;;;5048967;27;93110;-85
2022/12/07 07:01:13;;;;;;;4.32;2.42;;;20.10;57.80;;;;;;5059894;27;92389;-86
2022/12/07 07:03:40;;;;;;;21.23;5.10;;;20.10;57.60;;;;;;5058271;27;93124;-85
2022/12/07 07:06:07;;;;;;;20.02;4.22;;;20.10;57.50;;;;;;5058389;27;93772;-86
2022/12/07 07:08:33;;;;;;;9.55;4.03;;;20.00;57.60;;;;;;5058899;27;92518;-85
2022/12/07 07:10:59;;;;;;;15.75;4.50;;;20.00;58.40;;;;;;5057758;27;92030;-85
2022/12/07 07:13:24;;;;;;;26.17;6.50;;;19.90;58.00;;;;;;5068701;27;93670;-86
2022/12/07 07:15:50;;;;;;;20.60;6.20;;;20.00;57.60;;;;;;5059911;27;91594;-86
2022/12/07 07:18:16;;;;;;;13.60;4.55;;;20.10;57.40;;;;;;5050112;27;92523;-83
2022/12/07 07:20:41;;;;;;;13.32;3.83;;;20.20;57.30;;;;;;5058455;27;93230;-86
2022/12/07 07:23:07;;;;;;;18.33;5.88;;;20.30;57.20;;;;;;5058961;27;94433;-85
2022/12/07 07:25:33;;;;;;;19.80;5.65;;;20.40;57.00;;;;;;5059848;27;94334;-85
2022/12/07 07:27:59;;;;;;;17.27;6.32;;;20.50;56.70;;;;;;5061035;27;92380;-88
2022/12/07 07:30:25;;;;;;;15.45;5.78;;;20.60;56.30;;;;;;5061206;27;92597;-85
2022/12/07 07:32:51;;;;;;;15.10;4.95;;;20.70;56.40;;;;;;5059729;27;93396;-86
2022/12/07 07:35:17;;;;;;;15.95;5.10;;;20.80;56.40;;;;;;5060351;27;93714;-86
2022/12/07 07:37:42;;;;;;;14.82;6.00;;;20.80;56.50;;;;;;5059455;27;92351;-87
2022/12/07 07:40:11;;;;;;;17.27;5.85;;;20.90;56.30;;;;;;5060679;27;92312;-86
2022/12/07 07:42:39;;;;;;;13.77;5.28;;;20.80;56.30;;;;;;5060089;27;93357;-86
2022/12/07 07:45:05;;;;;;;16.88;5.40;;;20.90;56.30;;;;;;5060303;27;93417;-85
2022/12/07 07:47:31;;;;;;;21.30;5.63;;;20.90;56.60;;;;;;5058636;27;93094;-85
2022/12/07 07:49:57;;;;;;;18.60;5.68;;;20.90;56.60;;;;;;5040706;27;92268;-86
2022/12/07 07:52:23;;;;;;;15.68;4.80;;;20.90;56.40;;;;;;5061685;27;93458;-86
2022/12/07 07:54:48;;;;;;;18.90;5.30;;;20.90;56.80;;;;;;5059475;27;93382;-87
2022/12/07 07:57:15;;;;;;;14.88;5.70;;;20.90;57.40;;;;;;5061636;27;92525;-86
2022/12/07 07:59:41;;;;;;;11.48;4.65;;;21.00;57.10;;;;;;5042061;27;92679;-88
2022/12/07 08:02:16;;;;;;;12.20;4.45;;;21.10;57.30;;;;;;5048299;27;92872;-88
2022/12/07 08:04:42;;;;;;;14.70;4.97;;;21.10;57.00;;;;;;5058117;27;93205;-86
2022/12/07 08:07:07;;;;;;;24.17;7.22;;;21.10;55.20;;;;;;5060365;27;92607;-87
2022/12/07 08:09:33;;;;;;;19.10;6.25;;;21.20;55.10;;;;;;5047904;27;95127;-86
2022/12/07 08:11:58;;;;;;;22.63;6.07;;;21.20;55.30;;;;;;5058107;27;93954;-85
2022/12/07 08:14:24;;;;;;;23.70;6.95;;;21.20;55.10;;;;;;5030577;27;97433;-85
2022/12/07 08:16:50;;;;;;;25.30;7.65;;;21.20;52.80;;;;;;5058185;27;92620;-84
2022/12/07 08:19:15;;;;;;;20.75;6.72;;;21.20;54.70;;;;;;5059932;27;92766;-85
2022/12/07 08:21:41;;;;;;;24.30;6.75;;;21.30;55.20;;;;;;5058395;27;93628;-84
2022/12/07 08:24:07;;;;;;;22.65;6.80;;;21.30;55.30;;;;;;5002542;27;92359;-84
2022/12/07 08:26:35;;;;;;;23.77;6.88;;;21.30;55.60;;;;;;5057185;27;92069;-84
2022/12/07 08:29:01;;;;;;;24.38;6.60;;;21.40;56.10;;;;;;5057535;27;91579;-84
2022/12/07 08:31:27;;;;;;;21.42;6.78;;;21.40;56.50;;;;;;5056412;27;92630;-85
2022/12/07 08:33:53;;;;;;;25.48;6.88;;;21.50;57.30;;;;;;5057463;27;92403;-85
2022/12/07 08:36:19;;;;;;;27.45;6.72;;;21.50;57.40;;;;;;5058236;27;92995;-83
2022/12/07 08:38:45;;;;;;;21.02;6.05;;;21.60;58.30;;;;;;5058881;27;92526;-86
2022/12/07 08:41:10;;;;;;;23.65;6.82;;;21.60;58.10;;;;;;5058140;27;93634;-85
2022/12/07 08:43:36;;;;;;;31.40;7.20;;;21.70;58.60;;;;;;5057197;27;93378;-85
2022/12/07 08:46:27;;;;;;;32.38;7.20;;;21.60;58.50;;;;;;5056837;27;92725;-85
2022/12/07 08:49:04;;;;;;;39.65;7.03;;;21.60;59.10;;;;;;5058296;27;92473;-85
2022/12/07 08:51:30;;;;;;;25.40;6.43;;;21.60;59.70;;;;;;5058451;27;93579;-85
2022/12/07 08:53:57;;;;;;;22.13;6.00;;;21.60;59.80;;;;;;5058169;27;93296;-86
2022/12/07 08:56:24;;;;;;;21.08;6.40;;;21.60;59.90;;;;;;5057868;27;92050;-85
2022/12/07 08:58:50;;;;;;;30.38;6.45;;;21.60;60.60;;;;;;5057789;27;92543;-86
2022/12/07 09:01:16;;;;;;;27.38;7.32;;;21.60;60.90;;;;;;5062443;27;94716;-86
2022/12/07 09:03:41;;;;;;;19.77;6.15;;;21.60;61.80;;;;;;5060437;27;93765;-86
2022/12/07 09:06:07;;;;;;;29.10;6.35;;;21.60;61.90;;;;;;5062129;27;92376;-87
2022/12/07 09:08:38;;;;;;;25.17;6.65;;;21.60;62.80;;;;;;5060180;27;92368;-86
2022/12/07 09:11:04;;;;;;;42.03;6.60;;;21.60;63.00;;;;;;5061368;27;92756;-88
2022/12/07 09:13:30;;;;;;;24.33;7.25;;;21.70;63.10;;;;;;5062732;27;92450;-88
2022/12/07 09:15:56;;;;;;;21.10;6.40;;;21.70;62.90;;;;;;5062387;27;92463;-87
2022/12/07 09:18:21;;;;;;;29.63;6.15;;;21.80;62.80;;;;;;5061024;27;91727;-87
2022/12/07 09:20:47;;;;;;;31.90;6.72;;;21.90;63.00;;;;;;5062039;27;92375;-86
2022/12/07 09:23:12;;;;;;;27.90;6.75;;;22.00;62.90;;;;;;5060294;27;93213;-88
2022/12/07 09:25:41;;;;;;;22.38;5.03;;;22.10;62.40;;;;;;5050208;27;92947;-86
2022/12/07 09:28:07;;;;;;;25.10;6.03;;;22.10;62.60;;;;;;5043646;27;92201;-87
2022/12/07 09:30:32;;;;;;;19.35;6.13;;;22.10;60.60;;;;;;5062085;27;92589;-88
2022/12/07 09:33:06;;;;;;;24.25;6.50;;;22.10;59.90;;;;;;5048748;27;96140;-88
2022/12/07 09:35:31;;;;;;;22.73;6.38;;;22.00;60.40;;;;;;5065015;27;92954;-88
2022/12/07 09:37:57;;;;;;;19.80;5.70;;;22.10;61.50;;;;;;5047335;27;92137;-89
2022/12/07 09:40:24;;;;;;;21.23;5.88;;;22.10;61.20;;;;;;5063833;27;93048;-88
2022/12/07 09:42:55;;;;;;;31.20;8.90;;;22.20;59.20;;;;;;5061663;27;93110;-88
2022/12/07 09:45:30;;;;;;;26.58;7.65;;;22.10;60.40;;;;;;5061544;27;92218;-88
2022/12/07 09:47:57;;;;;;;39.80;9.23;;;22.20;60.80;;;;;;5062678;27;92415;-89
2022/12/07 09:50:26;;;;;;;41.70;8.98;;;22.10;61.30;;;;;;5062054;27;94219;-87
2022/12/07 09:52:53;;;;;;;37.95;9.13;;;22.10;61.60;;;;;;5044146;27;97018;-88
2022/12/07 09:55:28;;;;;;;35.40;9.27;;;22.10;61.50;;;;;;5045789;27;92596;-90
2022/12/07 09:57:54;;;;;;;40.85;9.60;;;22.10;61.60;;;;;;5062592;27;92158;-91
2022/12/07 10:00:25;;;;;;;61.00;10.82;;;22.10;62.70;;;;;;5062392;27;92692;-90
2022/12/07 10:02:59;;;;;;;34.17;9.25;;;22.10;61.80;;;;;;5032236;27;95471;-90
2022/12/07 10:05:42;;;;;;;40.80;9.82;;;22.20;61.90;;;;;;5056098;27;92597;-90
2022/12/07 10:08:12;;;;;;;49.15;9.88;;;22.10;61.90;;;;;;5062685;27;91981;-90
2022/12/07 10:10:39;;;;;;;41.60;9.15;;;22.10;62.50;;;;;;5059711;27;94825;-88
2022/12/07 10:13:14;;;;;;;49.33;9.65;;;22.20;59.80;;;;;;5063802;27;93831;-88
2022/12/07 10:15:53;;;;;;;36.30;8.60;;;22.30;60.70;;;;;;5060795;27;93530;-89
2022/12/07 10:18:36;;;;;;;33.88;7.55;;;22.40;60.20;;;;;;5019087;27;92608;-89
2022/12/07 10:21:08;;;;;;;42.20;9.25;;;22.40;59.80;;;;;;5025406;27;94416;-88
2022/12/07 10:23:36;;;;;;;41.33;8.02;;;22.40;60.40;;;;;;5020507;28;96554;-89
2022/12/07 10:26:32;;;;;;;36.38;8.82;;;22.40;60.40;;;;;;5021991;27;92241;-89
2022/12/07 10:29:14;;;;;;;36.17;8.60;;;22.40;61.40;;;;;;5026743;27;94286;-87
2022/12/07 10:31:41;;;;;;;38.05;8.18;;;22.40;61.90;;;;;;5038037;27;96432;-87
2022/12/07 10:34:26;;;;;;;29.38;7.97;;;22.40;61.80;;;;;;5056294;27;93528;-88
2022/12/07 10:36:53;;;;;;;36.92;8.75;;;22.40;60.70;;;;;;5061821;27;92585;-88
2022/12/07 10:39:23;;;;;;;38.92;8.68;;;22.40;60.70;;;;;;5060112;27;92057;-88
2022/12/07 10:42:25;;;;;;;28.80;7.75;;;22.30;61.20;;;;;;5061299;27;94688;-88
2022/12/07 10:45:11;;;;;;;26.02;7.70;;;22.30;60.40;;;;;;4988628;28;94032;-90
2022/12/07 10:47:43;;;;;;;26.95;7.43;;;22.20;58.80;;;;;;4989764;28;93079;-91
2022/12/07 10:50:14;;;;;;;22.08;6.55;;;22.20;57.20;;;;;;4991815;28;92529;-87
2022/12/07 10:53:11;;;;;;;25.80;7.43;;;22.20;56.00;;;;;;4988747;28;93949;-90
2022/12/07 10:56:14;;;;;;;25.50;7.50;;;22.30;56.40;;;;;;4962658;28;94945;-88
2022/12/07 10:59:03;;;;;;;32.13;6.50;;;22.30;56.30;;;;;;4987685;28;92516;-88
2022/12/07 11:01:52;;;;;;;31.52;6.00;;;22.40;57.20;;;;;;4990621;28;91625;-89
2022/12/07 11:04:31;;;;;;;26.85;6.57;;;22.30;57.30;;;;;;4986143;28;98532;-89
2022/12/07 11:07:06;;;;;;;23.97;6.47;;;22.30;57.70;;;;;;4986781;28;92956;-87
2022/12/07 11:10:05;;;;;;;26.17;6.82;;;22.40;58.20;;;;;;4985959;28;93290;-88
2022/12/07 11:12:48;;;;;;;24.50;5.80;;;22.40;58.20;;;;;;4985169;28;92792;-86
2022/12/07 11:15:17;;;;;;;22.88;6.15;;;22.40;56.70;;;;;;5024482;27;94106;-88
2022/12/07 11:18:06;;;;;;;22.05;5.75;;;22.50;57.60;;;;;;5060064;27;95319;-86
2022/12/07 11:21:00;;;;;;;19.15;6.07;;;22.50;58.00;;;;;;5058664;27;92145;-84
2022/12/07 11:23:48;;;;;;;24.15;5.70;;;22.60;58.30;;;;;;5058008;27;93458;-86
2022/12/07 11:26:31;;;;;;;33.58;6.20;;;22.60;58.10;;;;;;5043321;27;96262;-87
2022/12/07 11:29:09;;;;;;;19.67;5.55;;;22.60;57.90;;;;;;5060865;27;93364;-86
2022/12/07 11:31:50;;;;;;;26.45;6.10;;;22.60;57.80;;;;;;5060262;27;92503;-87
2022/12/07 11:34:52;;;;;;;20.48;5.28;;;22.70;58.90;;;;;;5032911;27;92444;-88
2022/12/07 11:37:23;;;;;;;28.70;5.65;;;22.60;58.00;;;;;;5032163;27;98882;-89
2022/12/07 11:39:52;;;;;;;26.92;6.25;;;22.50;57.70;;;;;;5033862;27;93376;-89
2022/12/07 11:42:35;;;;;;;38.45;5.70;;;22.60;58.50;;;;;;5032690;27;92732;-90
2022/12/07 11:45:28;;;;;;;30.40;5.43;;;22.60;58.30;;;;;;5033578;27;92286;-90
2022/12/07 11:48:00;;;;;;;19.42;5.25;;;22.60;58.30;;;;;;4955855;28;93234;-89
2022/12/07 11:50:36;;;;;;;27.15;5.30;;;22.50;58.90;;;;;;4957196;28;93626;-89
2022/12/07 11:53:08;;;;;;;27.58;6.20;;;22.50;59.20;;;;;;4954867;28;92507;-89
2022/12/07 11:55:57;;;;;;;27.30;5.85;;;22.60;59.20;;;;;;4955013;28;91456;-88
2022/12/07 11:58:50;;;;;;;29.45;6.38;;;22.60;59.00;;;;;;4956217;28;93167;-89
2022/12/07 12:01:45;;;;;;;22.58;5.97;;;22.60;58.20;;;;;;4955329;28;97569;-89
2022/12/07 12:04:11;;;;;;;28.55;5.97;;;22.60;58.40;;;;;;4956437;28;93253;-89
2022/12/07 12:06:44;;;;;;;41.10;7.13;;;22.60;58.80;;;;;;4978658;28;93086;-89
2022/12/07 12:09:12;;;;;;;31.52;7.10;;;22.60;58.80;;;;;;4995397;28;93585;-90
2022/12/07 12:12:02;;;;;;;24.40;7.38;;;22.60;58.80;;;;;;4992877;28;93653;-89
2022/12/07 12:14:42;;;;;;;30.98;6.93;;;22.60;59.00;;;;;;4993389;28;92287;-89
2022/12/07 12:17:32;;;;;;;;;;;22.60;59.00;;;;;;4993577;28;92073;-90
2022/12/07 12:20:16;;;;;;;24.05;6.40;;;22.60;59.30;;;;;;4985030;28;93283;-88
2022/12/07 12:23:01;;;;;;;28.13;7.57;;;22.60;59.40;;;;;;4971383;28;92697;-89
2022/12/07 12:25:43;;;;;;;30.90;7.63;;;22.60;59.40;;;;;;5017447;27;92666;-87
2022/12/07 12:28:20;;;;;;;26.25;7.97;;;22.70;59.60;;;;;;5034640;27;92850;-90
2022/12/07 12:31:05;;;;;;;24.65;6.80;;;22.60;59.60;;;;;;5036954;27;94793;-87
2022/12/07 12:33:32;;;;;;;27.20;6.53;;;22.60;59.80;;;;;;5038542;27;94254;-90
2022/12/07 12:36:16;;;;;;;20.05;6.15;;;22.70;59.80;;;;;;5040087;27;92656;-90
2022/12/07 12:39:06;;;;;;;22.42;7.47;;;22.60;59.50;;;;;;5039082;27;92410;-89
2022/12/07 12:41:38;;;;;;;34.75;8.00;;;22.70;60.20;;;;;;5038752;27;93670;-89
2022/12/07 12:44:29;;;;;;;25.48;8.85;;;22.70;60.70;;;;;;5021416;27;96245;-88
2022/12/07 12:47:23;;;;;;;30.55;8.70;;;22.60;61.60;;;;;;5023522;27;92675;-91
2022/12/07 12:50:26;;;;;;;19.60;6.65;;;22.60;62.10;;;;;;5037024;27;91934;-89
2022/12/07 12:52:57;;;;;;;22.23;6.82;;;22.60;62.10;;;;;;4944293;28;93653;-90
2022/12/07 12:55:41;;;;;;;30.13;9.15;;;22.50;62.40;;;;;;4954667;28;93321;-87
2022/12/07 12:58:31;;;;;;;27.33;9.27;;;22.50;63.60;;;;;;4955173;28;93337;-88
2022/12/07 13:01:32;;;;;;;18.70;6.47;;;22.40;62.70;;;;;;4952450;28;93069;-87
2022/12/07 13:06:24;;;;;;;24.95;7.13;;;22.40;64.20;;;;;;4952595;28;92724;-87
2022/12/07 13:08:51;;;;;;;24.58;6.88;;;22.40;63.90;;;;;;4951699;28;92609;-87
2022/12/07 13:11:28;;;;;;;21.60;7.05;;;22.50;63.00;;;;;;4951956;28;92698;-86